SBUG/URG METAR and TAF weather

Enter ICAO airport designator
Station Type Date Time Source
SBUG METAR 2021/05/19 11:00 UTC NOAA

SBUG 191100Z 09004KT CAVOK 09/07 Q1016


Station Type Date Time Source
SBUG Decoded METAR 2021/05/19 11:00 UTC NOAA

Uruguaiana Aeroporto , Brazil (SBUG) 29-47S 057-02W 74M
May 19, 2021 - 07:00 AM EDT / 2021.05.19 1100 UTC
Wind: from the E (090 degrees) at 5 MPH (4 KT):0
Visibility: greater than 7 mile(s):0
Temperature: 48 F (9 C)
Dew Point: 44 F (7 C)
Relative Humidity: 87%
Pressure (altimeter): 30.00 in. Hg (1016 hPa)
ob: SBUG 191100Z 09004KT CAVOK 09/07 Q1016
cycle: 11

Station Type Date Time Source
SBUG TAF 2021/07/24 18:03 UTC NOAA

TAF SBUG 241500Z 2418/2506 01007KT 9999 SCT020 TX30/2418Z TN16/2505Z
RMK PDZ

Example: see airport list